地図

経路データ

SID SEASON NUMBER BASIN SUBBASIN NAME ISO_TIME NATURE LAT LON WMO_WIND WMO_PRES WMO_AGENCY TRACK_TYPE DIST2LAND LANDFALL IFLAG USA_AGENCY USA_ATCF_ID USA_LAT USA_LON USA_RECORD USA_STATUS USA_WIND USA_PRES USA_SSHS USA_R34_NE USA_R34_SE USA_R34_SW USA_R34_NW USA_R50_NE USA_R50_SE USA_R50_SW USA_R50_NW USA_R64_NE USA_R64_SE USA_R64_SW USA_R64_NW USA_POCI USA_ROCI USA_RMW USA_EYE TOKYO_LAT TOKYO_LON TOKYO_GRADE TOKYO_WIND TOKYO_PRES TOKYO_R50_DIR TOKYO_R50_LONG TOKYO_R50_SHORT TOKYO_R30_DIR TOKYO_R30_LONG TOKYO_R30_SHORT TOKYO_LAND CMA_LAT CMA_LON CMA_CAT CMA_WIND CMA_PRES HKO_LAT HKO_LON HKO_CAT HKO_WIND HKO_PRES NEWDELHI_LAT NEWDELHI_LON NEWDELHI_GRADE NEWDELHI_WIND NEWDELHI_PRES NEWDELHI_CI NEWDELHI_DP NEWDELHI_POCI REUNION_LAT REUNION_LON REUNION_TYPE REUNION_WIND REUNION_PRES REUNION_TNUM REUNION_CI REUNION_RMW REUNION_R34_NE REUNION_R34_SE REUNION_R34_SW REUNION_R34_NW REUNION_R50_NE REUNION_R50_SE REUNION_R50_SW REUNION_R50_NW REUNION_R64_NE REUNION_R64_SE REUNION_R64_SW REUNION_R64_NW BOM_LAT BOM_LON BOM_TYPE BOM_WIND BOM_PRES BOM_TNUM BOM_CI BOM_RMW BOM_R34_NE BOM_R34_SE BOM_R34_SW BOM_R34_NW BOM_R50_NE BOM_R50_SE BOM_R50_SW BOM_R50_NW BOM_R64_NE BOM_R64_SE BOM_R64_SW BOM_R64_NW BOM_ROCI BOM_POCI BOM_EYE BOM_POS_METHOD BOM_PRES_METHOD NADI_LAT NADI_LON NADI_CAT NADI_WIND NADI_PRES WELLINGTON_LAT WELLINGTON_LON WELLINGTON_WIND WELLINGTON_PRES DS824_LAT DS824_LON DS824_STAGE DS824_WIND DS824_PRES TD9636_LAT TD9636_LON TD9636_STAGE TD9636_WIND TD9636_PRES TD9635_LAT TD9635_LON TD9635_WIND TD9635_PRES TD9635_ROCI NEUMANN_LAT NEUMANN_LON NEUMANN_CLASS NEUMANN_WIND NEUMANN_PRES MLC_LAT MLC_LON MLC_CLASS MLC_WIND MLC_PRES USA_GUST BOM_GUST BOM_GUST_PER REUNION_GUST REUNION_GUST_PER USA_SEAHGT USA_SEARAD_NE USA_SEARAD_SE USA_SEARAD_SW USA_SEARAD_NW STORM_SPEED STORM_DIR
1964248N18324 1964 76 NA NA ETHEL 1964-09-04 06:00:00 TS 17.7000 -35.6000 25 hurdat_atl main 1961 1961 O_____________ hurdat_atl AL071964 17.7000 -35.6000 TD 25 -1 14 282
1964248N18324 1964 76 NA NA ETHEL 1964-09-04 09:00:00 TS 17.8405 -36.3023 main 2036 2036 P_____________ AL071964 17.8405 -36.3023 TD 27 -1 14 283
1964248N18324 1964 76 NA NA ETHEL 1964-09-04 12:00:00 TS 18.0000 -37.0000 30 hurdat_atl main 2109 2109 O_____________ hurdat_atl AL071964 18.0000 -37.0000 TD 30 -1 14 285
1964248N18324 1964 76 NA NA ETHEL 1964-09-04 15:00:00 TS 18.1922 -37.6926 main 2147 2112 P_____________ AL071964 18.1922 -37.6926 TD 32 -1 14 287
1964248N18324 1964 76 NA NA ETHEL 1964-09-04 18:00:00 TS 18.4000 -38.4000 35 hurdat_atl main 2112 2079 O_____________ hurdat_atl AL071964 18.4000 -38.4000 TS 35 0 14 287
1964248N18324 1964 76 NA NA ETHEL 1964-09-04 21:00:00 TS 18.5997 -39.1352 main 2079 2042 P_____________ AL071964 18.5997 -39.1352 TS 35 0 15 286
1964248N18324 1964 76 NA NA ETHEL 1964-09-05 00:00:00 TS 18.8000 -39.9000 35 hurdat_atl main 2042 2008 O_____________ hurdat_atl AL071964 18.8000 -39.9000 TS 35 0 15 285
1964248N18324 1964 76 NA NA ETHEL 1964-09-05 03:00:00 TS 19.0073 -40.7000 main 2008 1976 P_____________ AL071964 19.0073 -40.7000 TS 35 0 16 285
1964248N18324 1964 76 NA NA ETHEL 1964-09-05 06:00:00 TS 19.2000 -41.5000 35 hurdat_atl main 1976 1940 O_____________ hurdat_atl AL071964 19.2000 -41.5000 TS 35 0 15 283
1964248N18324 1964 76 NA NA ETHEL 1964-09-05 09:00:00 TS 19.3494 -42.2429 main 1940 1909 P_____________ AL071964 19.3494 -42.2429 TS 35 0 14 282
1964248N18324 1964 76 NA NA ETHEL 1964-09-05 12:00:00 TS 19.5000 -43.0000 35 hurdat_atl main 1909 1882 O_____________ hurdat_atl AL071964 19.5000 -43.0000 TS 35 0 15 283
1964248N18324 1964 76 NA NA ETHEL 1964-09-05 15:00:00 TS 19.6923 -43.8351 main 1882 1854 P_____________ AL071964 19.6923 -43.8351 TS 35 0 17 284
1964248N18324 1964 76 NA NA ETHEL 1964-09-05 18:00:00 TS 19.9000 -44.7000 35 1005 hurdat_atl main 1854 1835 O_____________ hurdat_atl AL071964 19.9000 -44.7000 TS 35 1005 0 16 284
1964248N18324 1964 76 NA NA ETHEL 1964-09-05 21:00:00 TS 20.0844 -45.5356 main 1835 1814 P_____________ AL071964 20.0844 -45.5356 TS 35 0 16 284
1964248N18324 1964 76 NA NA ETHEL 1964-09-06 00:00:00 TS 20.3000 -46.4000 35 hurdat_atl main 1816 1796 O_____________ hurdat_atl AL071964 20.3000 -46.4000 TS 35 0 17 285
1964248N18324 1964 76 NA NA ETHEL 1964-09-06 03:00:00 TS 20.5471 -47.3284 main 1796 1781 P_____________ AL071964 20.5471 -47.3284 TS 35 0 19 289
1964248N18324 1964 76 NA NA ETHEL 1964-09-06 06:00:00 TS 20.9000 -48.3000 35 hurdat_atl main 1773 1730 O_____________ hurdat_atl AL071964 20.9000 -48.3000 TS 35 0 20 295
1964248N18324 1964 76 NA NA ETHEL 1964-09-06 09:00:00 TS 21.3971 -49.2928 main 1729 1653 P_____________ AL071964 21.3971 -49.2928 TS 35 0 22 301
1964248N18324 1964 76 NA NA ETHEL 1964-09-06 12:00:00 TS 22.0000 -50.3000 35 1008 hurdat_atl main 1645 1560 O_____________ hurdat_atl AL071964 22.0000 -50.3000 TS 35 1008 0 23 304
1964248N18324 1964 76 NA NA ETHEL 1964-09-06 15:00:00 TS 22.6575 -51.3371 main 1563 1485 P_____________ AL071964 22.6575 -51.3371 TS 37 1007 0 23 305
1964248N18324 1964 76 NA NA ETHEL 1964-09-06 18:00:00 TS 23.3000 -52.3000 40 hurdat_atl main 1485 1429 I_____________ hurdat_atl AL071964 23.3000 -52.3000 TS 40 1007 0 20 306
1964248N18324 1964 76 NA NA ETHEL 1964-09-06 21:00:00 TS 23.8441 -53.0959 main 1429 1387 P_____________ AL071964 23.8441 -53.0959 TS 40 1006 0 17 306
1964248N18324 1964 76 NA NA ETHEL 1964-09-07 00:00:00 TS 24.3000 -53.8000 40 1006 hurdat_atl main 1387 1345 O_____________ hurdat_atl AL071964 24.3000 -53.8000 TS 40 1006 0 15 303
1964248N18324 1964 76 NA NA ETHEL 1964-09-07 03:00:00 TS 24.6797 -54.5156 main 1345 1302 P_____________ AL071964 24.6797 -54.5156 TS 42 0 15 299
1964248N18324 1964 76 NA NA ETHEL 1964-09-07 06:00:00 TS 25.0000 -55.2000 45 hurdat_atl main 1302 1270 O_____________ hurdat_atl AL071964 25.0000 -55.2000 TS 45 0 14 297
1964248N18324 1964 76 NA NA ETHEL 1964-09-07 09:00:00 TS 25.2997 -55.8655 main 1262 1235 P_____________ AL071964 25.2997 -55.8655 TS 45 0 13 297
1964248N18324 1964 76 NA NA ETHEL 1964-09-07 12:00:00 TS 25.6000 -56.5000 45 hurdat_atl main 1235 1211 O_____________ hurdat_atl AL071964 25.6000 -56.5000 TS 45 0 13 300
1964248N18324 1964 76 NA NA ETHEL 1964-09-07 15:00:00 TS 25.9497 -57.1151 main 1211 1198 P_____________ AL071964 25.9497 -57.1151 TS 47 0 13 303
1964248N18324 1964 76 NA NA ETHEL 1964-09-07 18:00:00 TS 26.3000 -57.7000 50 hurdat_atl main 1199 1183 O_____________ hurdat_atl AL071964 26.3000 -57.7000 TS 50 0 13 303
1964248N18324 1964 76 NA NA ETHEL 1964-09-07 21:00:00 TS 26.6300 -58.2875 main 1183 1175 P_____________ AL071964 26.6300 -58.2875 TS 50 0 12 301
1964248N18324 1964 76 NA NA ETHEL 1964-09-08 00:00:00 TS 26.9000 -58.8000 50 hurdat_atl main 1178 1169 O_____________ hurdat_atl AL071964 26.9000 -58.8000 TS 50 0 9 299
1964248N18324 1964 76 NA NA ETHEL 1964-09-08 03:00:00 TS 27.0796 -59.1804 main 1172 1164 P_____________ AL071964 27.0796 -59.1804 TS 50 0 7 296
1964248N18324 1964 76 NA NA ETHEL 1964-09-08 06:00:00 TS 27.2000 -59.5000 50 hurdat_atl main 1164 1153 O_____________ hurdat_atl AL071964 27.2000 -59.5000 TS 50 0 7 291
1964248N18324 1964 76 NA NA ETHEL 1964-09-08 09:00:00 TS 27.3151 -59.8725 main 1153 1147 P_____________ AL071964 27.3151 -59.8725 TS 52 0 7 288
1964248N18324 1964 76 NA NA ETHEL 1964-09-08 12:00:00 TS 27.4000 -60.2000 55 999 hurdat_atl main 1147 1137 O_____________ hurdat_atl AL071964 27.4000 -60.2000 TS 55 999 0 5 286
1964248N18324 1964 76 NA NA ETHEL 1964-09-08 15:00:00 TS 27.4573 -60.4151 main 1147 1138 P_____________ AL071964 27.4573 -60.4151 TS 60 992 0 4 286
1964248N18324 1964 76 NA NA ETHEL 1964-09-08 18:00:00 TS 27.5000 -60.6000 65 986 hurdat_atl main 1138 1129 O_____________ hurdat_atl AL071964 27.5000 -60.6000 HU 65 986 1 4 284
1964248N18324 1964 76 NA NA ETHEL 1964-09-08 21:00:00 TS 27.5500 -60.8500 main 1139 1126 P_____________ AL071964 27.5500 -60.8500 HU 65 986 1 5 283
1964248N18324 1964 76 NA NA ETHEL 1964-09-09 00:00:00 TS 27.6000 -61.1000 65 hurdat_atl main 1126 1118 I_____________ hurdat_atl AL071964 27.6000 -61.1000 HU 65 987 1 4 286
1964248N18324 1964 76 NA NA ETHEL 1964-09-09 03:00:00 TS 27.6573 -61.2850 main 1128 1120 P_____________ AL071964 27.6573 -61.2850 HU 65 988 1 4 286
1964248N18324 1964 76 NA NA ETHEL 1964-09-09 06:00:00 TS 27.7000 -61.5000 65 989 hurdat_atl main 1120 1109 O_____________ hurdat_atl AL071964 27.7000 -61.5000 HU 65 989 1 5 276
1964248N18324 1964 76 NA NA ETHEL 1964-09-09 09:00:00 TS 27.7074 -61.8126 main 1109 1095 P_____________ AL071964 27.7074 -61.8126 HU 65 986 1 6 270
1964248N18324 1964 76 NA NA ETHEL 1964-09-09 12:00:00 TS 27.7000 -62.2000 65 984 hurdat_atl main 1095 1083 O_____________ hurdat_atl AL071964 27.7000 -62.2000 HU 65 984 1 7 270
1964248N18324 1964 76 NA NA ETHEL 1964-09-09 15:00:00 TS 27.7075 -62.6349 main 1083 1070 P_____________ AL071964 27.7075 -62.6349 HU 65 1 8 270
1964248N18324 1964 76 NA NA ETHEL 1964-09-09 18:00:00 TS 27.7000 -63.1000 65 hurdat_atl main 1070 1061 O_____________ hurdat_atl AL071964 27.7000 -63.1000 HU 65 1 8 267
1964248N18324 1964 76 NA NA ETHEL 1964-09-09 21:00:00 TS 27.6649 -63.5575 main 1059 1041 P_____________ AL071964 27.6649 -63.5575 HU 67 1 8 263
1964248N18324 1964 76 NA NA ETHEL 1964-09-10 00:00:00 TS 27.6000 -64.0000 70 hurdat_atl main 1041 1024 O_____________ hurdat_atl AL071964 27.6000 -64.0000 HU 70 1 8 258
1964248N18324 1964 76 NA NA ETHEL 1964-09-10 03:00:00 TS 27.4999 -64.4226 main 1024 1009 P_____________ AL071964 27.4999 -64.4226 HU 70 1 7 254
1964248N18324 1964 76 NA NA ETHEL 1964-09-10 06:00:00 TS 27.4000 -64.8000 70 hurdat_atl main 1009 991 O_____________ hurdat_atl AL071964 27.4000 -64.8000 HU 70 1 7 255
1964248N18324 1964 76 NA NA ETHEL 1964-09-10 09:00:00 TS 27.3274 -65.1300 main 991 978 P_____________ AL071964 27.3274 -65.1300 HU 72 1 5 259
1964248N18324 1964 76 NA NA ETHEL 1964-09-10 12:00:00 TS 27.3000 -65.4000 75 976 hurdat_atl main 978 970 O_____________ hurdat_atl AL071964 27.3000 -65.4000 HU 75 976 1 4 271
1964248N18324 1964 76 NA NA ETHEL 1964-09-10 15:00:00 TS 27.3349 -65.6299 main 970 965 P_____________ AL071964 27.3349 -65.6299 HU 75 976 1 4 286
1964248N18324 1964 76 NA NA ETHEL 1964-09-10 18:00:00 TS 27.4000 -65.8000 75 977 hurdat_atl main 970 966 O_____________ hurdat_atl AL071964 27.4000 -65.8000 HU 75 977 1 3 292
1964248N18324 1964 76 NA NA ETHEL 1964-09-10 21:00:00 TS 27.4349 -65.9151 main 966 966 P_____________ AL071964 27.4349 -65.9151 HU 75 1 2 300
1964248N18324 1964 76 NA NA ETHEL 1964-09-11 00:00:00 TS 27.5000 -66.0000 75 hurdat_atl main 972 972 O_____________ hurdat_atl AL071964 27.5000 -66.0000 HU 75 1 3 319
1964248N18324 1964 76 NA NA ETHEL 1964-09-11 03:00:00 TS 27.6275 -66.1000 main 978 978 P_____________ AL071964 27.6275 -66.1000 HU 72 1 3 330
1964248N18324 1964 76 NA NA ETHEL 1964-09-11 06:00:00 TS 27.8000 -66.2000 70 hurdat_atl main 994 994 O_____________ hurdat_atl AL071964 27.8000 -66.2000 HU 70 1 4 334
1964248N18324 1964 76 NA NA ETHEL 1964-09-11 09:00:00 TS 27.9775 -66.2926 main 1011 1011 P_____________ AL071964 27.9775 -66.2926 HU 70 1 4 336
1964248N18324 1964 76 NA NA ETHEL 1964-09-11 12:00:00 TS 28.2000 -66.4000 70 983 hurdat_atl main 1027 1027 O_____________ hurdat_atl AL071964 28.2000 -66.4000 HU 70 983 1 5 336
1964248N18324 1964 76 NA NA ETHEL 1964-09-11 15:00:00 TS 28.4775 -66.5425 main 1045 1039 P_____________ AL071964 28.4775 -66.5425 HU 72 980 1 7 336
1964248N18324 1964 76 NA NA ETHEL 1964-09-11 18:00:00 TS 28.8000 -66.7000 75 977 hurdat_atl main 1059 1059 O_____________ hurdat_atl AL071964 28.8000 -66.7000 HU 75 977 1 7 337
1964248N18324 1964 76 NA NA ETHEL 1964-09-11 21:00:00 TS 29.1350 -66.8575 main 1074 1059 P_____________ AL071964 29.1350 -66.8575 HU 75 1 8 339
1964248N18324 1964 76 NA NA ETHEL 1964-09-12 00:00:00 TS 29.5000 -67.0000 75 hurdat_atl main 1059 1022 O_____________ hurdat_atl AL071964 29.5000 -67.0000 HU 75 1 8 343
1964248N18324 1964 76 NA NA ETHEL 1964-09-12 03:00:00 TS 29.8925 -67.1150 main 1022 985 P_____________ AL071964 29.8925 -67.1150 HU 77 1 8 348
1964248N18324 1964 76 NA NA ETHEL 1964-09-12 06:00:00 TS 30.3000 -67.2000 80 hurdat_atl main 985 949 O_____________ hurdat_atl AL071964 30.3000 -67.2000 HU 80 1 8 349
1964248N18324 1964 76 NA NA ETHEL 1964-09-12 09:00:00 TS 30.6999 -67.2947 main 949 921 P_____________ AL071964 30.6999 -67.2947 HU 80 1 8 354
1964248N18324 1964 76 NA NA ETHEL 1964-09-12 12:00:00 TS 31.1000 -67.3000 80 974 hurdat_atl main 921 903 O_____________ hurdat_atl AL071964 31.1000 -67.3000 HU 80 974 1 8 8
1964248N18324 1964 76 NA NA ETHEL 1964-09-12 15:00:00 TS 31.4849 -67.1672 main 903 899 P_____________ AL071964 31.4849 -67.1672 HU 80 975 1 9 23
1964248N18324 1964 76 NA NA ETHEL 1964-09-12 18:00:00 TS 31.9000 -66.9000 80 976 hurdat_atl main 903 897 O_____________ hurdat_atl AL071964 31.9000 -66.9000 HU 80 976 1 10 30
1964248N18324 1964 76 NA NA ETHEL 1964-09-12 21:00:00 TS 32.3698 -66.5594 main 900 900 P_____________ AL071964 32.3698 -66.5594 HU 80 1 12 34
1964248N18324 1964 76 NA NA ETHEL 1964-09-13 00:00:00 TS 32.9000 -66.1000 80 hurdat_atl main 919 919 O_____________ hurdat_atl AL071964 32.9000 -66.1000 HU 80 1 14 37
1964248N18324 1964 76 NA NA ETHEL 1964-09-13 03:00:00 TS 33.4695 -65.5662 main 938 938 P_____________ AL071964 33.4695 -65.5662 HU 82 1 16 40
1964248N18324 1964 76 NA NA ETHEL 1964-09-13 06:00:00 TS 34.1000 -64.9000 85 hurdat_atl main 956 928 O_____________ hurdat_atl AL071964 34.1000 -64.9000 HU 85 2 18 43
1964248N18324 1964 76 NA NA ETHEL 1964-09-13 09:00:00 TS 34.7775 -64.0943 main 923 904 P_____________ AL071964 34.7775 -64.0943 HU 87 2 20 45
1964248N18324 1964 76 NA NA ETHEL 1964-09-13 12:00:00 TS 35.5000 -63.2000 90 hurdat_atl main 906 848 O_____________ hurdat_atl AL071964 35.5000 -63.2000 HU 90 2 21 44
1964248N18324 1964 76 NA NA ETHEL 1964-09-13 15:00:00 TS 36.2492 -62.3211 main 851 791 P_____________ AL071964 36.2492 -62.3211 HU 90 2 21 44
1964248N18324 1964 76 NA NA ETHEL 1964-09-13 18:00:00 TS 37.0000 -61.4000 90 hurdat_atl main 794 761 O_____________ hurdat_atl AL071964 37.0000 -61.4000 HU 90 2 21 46
1964248N18324 1964 76 NA NA ETHEL 1964-09-13 21:00:00 TS 37.6917 -60.4271 main 765 745 P_____________ AL071964 37.6917 -60.4271 HU 90 2 21 49
1964248N18324 1964 76 NA NA ETHEL 1964-09-14 00:00:00 TS 38.4000 -59.4000 90 hurdat_atl main 750 711 O_____________ hurdat_atl AL071964 38.4000 -59.4000 HU 90 2 22 48
1964248N18324 1964 76 NA NA ETHEL 1964-09-14 03:00:00 TS 39.1915 -58.3285 main 705 655 P_____________ AL071964 39.1915 -58.3285 HU 90 2 23 47
1964248N18324 1964 76 NA NA ETHEL 1964-09-14 06:00:00 TS 40.0000 -57.2000 90 hurdat_atl main 659 637 O_____________ hurdat_atl AL071964 40.0000 -57.2000 HU 90 2 23 48
1964248N18324 1964 76 NA NA ETHEL 1964-09-14 09:00:00 TS 40.7630 -56.0490 main 640 576 P_____________ AL071964 40.7630 -56.0490 HU 90 2 24 50
1964248N18324 1964 76 NA NA ETHEL 1964-09-14 12:00:00 TS 41.5000 -54.8000 90 hurdat_atl main 574 489 O_____________ hurdat_atl AL071964 41.5000 -54.8000 HU 90 2 25 54
1964248N18324 1964 76 NA NA ETHEL 1964-09-14 15:00:00 TS 42.2295 -53.3866 main 489 421 P_____________ AL071964 42.2295 -53.3866 HU 87 2 26 57
1964248N18324 1964 76 NA NA ETHEL 1964-09-14 18:00:00 ET 42.9000 -51.9000 85 969 hurdat_atl main 423 400 O_____________ hurdat_atl AL071964 42.9000 -51.9000 EX 85 969 -4 25 59
1964248N18324 1964 76 NA NA ETHEL 1964-09-14 21:00:00 ET 43.4919 -50.4767 main 404 403 P_____________ AL071964 43.4919 -50.4767 EX 80 -4 24 62
1964248N18324 1964 76 NA NA ETHEL 1964-09-15 00:00:00 ET 44.0000 -49.0000 75 hurdat_atl main 436 436 O_____________ hurdat_atl AL071964 44.0000 -49.0000 EX 75 -4 24 66
1964248N18324 1964 76 NA NA ETHEL 1964-09-15 03:00:00 ET 44.4656 -47.3953 main 503 503 P_____________ AL071964 44.4656 -47.3953 EX 70 -4 25 71
1964248N18324 1964 76 NA NA ETHEL 1964-09-15 06:00:00 ET 44.8000 -45.7000 65 hurdat_atl main 605 605 O_____________ hurdat_atl AL071964 44.8000 -45.7000 EX 65 -4 25 78
1964248N18324 1964 76 NA NA ETHEL 1964-09-15 09:00:00 ET 44.9714 -43.9932 main 714 714 P_____________ AL071964 44.9714 -43.9932 EX 62 -4 25 85
1964248N18324 1964 76 NA NA ETHEL 1964-09-15 12:00:00 ET 45.0000 -42.2000 60 hurdat_atl main 842 842 O_____________ hurdat_atl AL071964 45.0000 -42.2000 EX 60 -4 26 91
1964248N18324 1964 76 NA NA ETHEL 1964-09-15 15:00:00 ET 44.9445 -40.2489 main 992 992 P_____________ AL071964 44.9445 -40.2489 EX 60 -4 28 94
1964248N18324 1964 76 NA NA ETHEL 1964-09-15 18:00:00 ET 44.8000 -38.3000 60 hurdat_atl main 1135 1135 O_____________ hurdat_atl AL071964 44.8000 -38.3000 EX 60 -4 27 97
1964248N18324 1964 76 NA NA ETHEL 1964-09-15 21:00:00 ET 44.6116 -36.5051 main 1276 1276 P_____________ AL071964 44.6116 -36.5051 EX 57 -4 25 99
1964248N18324 1964 76 NA NA ETHEL 1964-09-16 00:00:00 ET 44.4000 -34.8000 55 hurdat_atl main 1409 1409 O_____________ hurdat_atl AL071964 44.4000 -34.8000 EX 55 -4 25 99
1964248N18324 1964 76 NA NA ETHEL 1964-09-16 03:00:00 ET 44.2069 -33.0764 main 1543 1543 P_____________ AL071964 44.2069 -33.0764 EX 52 -4 24 100
1964248N18324 1964 76 NA NA ETHEL 1964-09-16 06:00:00 ET 44.0000 -31.5000 50 hurdat_atl main 1670 1670 O_____________ hurdat_atl AL071964 44.0000 -31.5000 EX 50 -4 22 101
1964248N18324 1964 76 NA NA ETHEL 1964-09-16 09:00:00 ET 43.7935 -30.1172 main 1672 1594 P_____________ AL071964 43.7935 -30.1172 EX 47 -4 19 105
1964248N18324 1964 76 NA NA ETHEL 1964-09-16 12:00:00 ET 43.5000 -29.0000 45 hurdat_atl main 1586 1526 O_____________ hurdat_atl AL071964 43.5000 -29.0000 EX 45 -4 16 118
1964248N18324 1964 76 NA NA ETHEL 1964-09-16 15:00:00 ET 43.0358 -28.1377 main 1520 1478 P_____________ AL071964 43.0358 -28.1377 EX 42 -4 15 132
1964248N18324 1964 76 NA NA ETHEL 1964-09-16 18:00:00 ET 42.5000 -27.5000 40 hurdat_atl main 1478 1445 O_____________ hurdat_atl AL071964 42.5000 -27.5000 EX 40 -4 14 140
1964248N18324 1964 76 NA NA ETHEL 1964-09-16 21:00:00 ET 41.9994 -26.9489 main 1439 1415 P_____________ AL071964 41.9994 -26.9489 EX 37 -4 12 143
1964248N18324 1964 76 NA NA ETHEL 1964-09-17 00:00:00 ET 41.5000 -26.5000 35 hurdat_atl main 1417 1395 O_____________ hurdat_atl AL071964 41.5000 -26.5000 EX 35 -4 12 147
1964248N18324 1964 76 NA NA ETHEL 1964-09-17 03:00:00 ET 40.9998 -26.0783 main 1398 1377 P_____________ AL071964 40.9998 -26.0783 EX 32 -4 12 149
1964248N18324 1964 76 NA NA ETHEL 1964-09-17 06:00:00 ET 40.5000 -25.7000 30 hurdat_atl main 1380 1366 O_____________ hurdat_atl AL071964 40.5000 -25.7000 EX 30 -4 11 151
1964248N18324 1964 76 NA NA ETHEL 1964-09-17 09:00:00 ET 40.0002 -25.3439 main 1358 1333 P_____________ AL071964 40.0002 -25.3439 EX 30 -4 11 152
1964248N18324 1964 76 NA NA ETHEL 1964-09-17 12:00:00 ET 39.5000 -25.0000 30 hurdat_atl main 1333 O_____________ hurdat_atl AL071964 39.5000 -25.0000 EX 30 -4 11 152

IBTrACS Databaseについて

本データベースは、米国NOAAが公開する1842年以降の世界の熱帯低気圧のベストトラックデータアーカイブInternational Best Track Archive for Climate Stewardship (IBTrACS)を、ウェブで閲覧しやすい形式に変換したものです。

最終更新日:2021-10-21